sensor_id;sensor_type;location;lat;lon;timestamp;P1;durP1;ratioP1;P2;durP2;ratioP2
703;SDS011;335;48.694;9.120;2022-10-29T00:00:54;5.73;;;3.43;;
703;SDS011;335;48.694;9.120;2022-10-29T00:03:24;5.17;;;3.70;;
703;SDS011;335;48.694;9.120;2022-10-29T00:08:25;4.77;;;3.20;;
703;SDS011;335;48.694;9.120;2022-10-29T00:10:51;12.57;;;4.23;;
703;SDS011;335;48.694;9.120;2022-10-29T00:13:17;9.90;;;4.33;;
703;SDS011;335;48.694;9.120;2022-10-29T00:15:44;8.50;;;4.30;;
703;SDS011;335;48.694;9.120;2022-10-29T00:18:10;6.30;;;3.60;;
703;SDS011;335;48.694;9.120;2022-10-29T00:20:35;8.37;;;3.87;;
703;SDS011;335;48.694;9.120;2022-10-29T00:23:02;5.13;;;3.70;;
703;SDS011;335;48.694;9.120;2022-10-29T00:25:27;4.93;;;3.17;;
703;SDS011;335;48.694;9.120;2022-10-29T00:27:58;6.97;;;3.80;;
703;SDS011;335;48.694;9.120;2022-10-29T00:30:25;6.70;;;3.80;;
703;SDS011;335;48.694;9.120;2022-10-29T00:32:50;4.53;;;4.03;;
703;SDS011;335;48.694;9.120;2022-10-29T00:35:15;4.20;;;3.80;;
703;SDS011;335;48.694;9.120;2022-10-29T00:37:42;5.60;;;4.17;;
703;SDS011;335;48.694;9.120;2022-10-29T00:40:08;7.00;;;4.30;;
703;SDS011;335;48.694;9.120;2022-10-29T00:42:34;5.70;;;4.10;;
703;SDS011;335;48.694;9.120;2022-10-29T00:45:01;12.27;;;4.60;;
703;SDS011;335;48.694;9.120;2022-10-29T00:47:29;7.40;;;4.33;;
703;SDS011;335;48.694;9.120;2022-10-29T00:49:57;6.17;;;4.00;;
703;SDS011;335;48.694;9.120;2022-10-29T00:52:45;10.00;;;4.10;;
703;SDS011;335;48.694;9.120;2022-10-29T00:55:13;5.60;;;4.00;;
703;SDS011;335;48.694;9.120;2022-10-29T00:57:40;10.13;;;4.03;;
703;SDS011;335;48.694;9.120;2022-10-29T01:00:11;5.37;;;3.60;;
703;SDS011;335;48.694;9.120;2022-10-29T01:02:41;6.57;;;4.40;;
703;SDS011;335;48.694;9.120;2022-10-29T01:05:08;12.87;;;3.73;;
703;SDS011;335;48.694;9.120;2022-10-29T01:07:35;4.80;;;3.73;;
703;SDS011;335;48.694;9.120;2022-10-29T01:10:01;8.90;;;4.37;;
703;SDS011;335;48.694;9.120;2022-10-29T01:35:08;13.33;;;4.40;;
703;SDS011;335;48.694;9.120;2022-10-29T01:40:36;7.00;;;3.87;;
703;SDS011;335;48.694;9.120;2022-10-29T01:46:04;6.03;;;4.20;;
703;SDS011;335;48.694;9.120;2022-10-29T01:48:34;4.90;;;4.20;;
703;SDS011;335;48.694;9.120;2022-10-29T01:51:07;6.00;;;3.47;;
703;SDS011;335;48.694;9.120;2022-10-29T01:53:35;7.50;;;3.90;;
703;SDS011;335;48.694;9.120;2022-10-29T01:56:01;9.23;;;4.33;;
703;SDS011;335;48.694;9.120;2022-10-29T01:58:27;5.97;;;4.27;;
703;SDS011;335;48.694;9.120;2022-10-29T02:08:47;14.93;;;4.73;;
703;SDS011;335;48.694;9.120;2022-10-29T02:11:29;4.23;;;3.83;;
703;SDS011;335;48.694;9.120;2022-10-29T02:14:04;5.73;;;4.20;;
703;SDS011;335;48.694;9.120;2022-10-29T02:16:39;5.97;;;4.23;;
703;SDS011;335;48.694;9.120;2022-10-29T02:19:05;9.60;;;4.33;;
703;SDS011;335;48.694;9.120;2022-10-29T02:21:30;6.70;;;5.10;;
703;SDS011;335;48.694;9.120;2022-10-29T02:23:56;6.93;;;4.57;;
703;SDS011;335;48.694;9.120;2022-10-29T02:26:21;10.10;;;4.60;;
703;SDS011;335;48.694;9.120;2022-10-29T02:28:46;5.60;;;4.20;;
703;SDS011;335;48.694;9.120;2022-10-29T02:31:12;10.40;;;4.40;;
703;SDS011;335;48.694;9.120;2022-10-29T02:33:37;9.17;;;5.40;;
703;SDS011;335;48.694;9.120;2022-10-29T02:36:02;9.13;;;4.60;;
703;SDS011;335;48.694;9.120;2022-10-29T02:38:28;5.50;;;3.57;;
703;SDS011;335;48.694;9.120;2022-10-29T02:40:53;6.10;;;3.90;;
703;SDS011;335;48.694;9.120;2022-10-29T02:43:19;5.37;;;4.47;;
703;SDS011;335;48.694;9.120;2022-10-29T02:45:44;6.90;;;4.50;;
703;SDS011;335;48.694;9.120;2022-10-29T02:48:09;4.60;;;4.20;;
703;SDS011;335;48.694;9.120;2022-10-29T02:50:35;6.70;;;4.90;;
703;SDS011;335;48.694;9.120;2022-10-29T02:53:00;6.57;;;4.90;;
703;SDS011;335;48.694;9.120;2022-10-29T02:55:25;6.20;;;4.40;;
703;SDS011;335;48.694;9.120;2022-10-29T02:57:50;5.97;;;4.30;;
703;SDS011;335;48.694;9.120;2022-10-29T03:00:16;6.63;;;4.83;;
703;SDS011;335;48.694;9.120;2022-10-29T03:02:41;4.93;;;4.43;;
703;SDS011;335;48.694;9.120;2022-10-29T03:05:07;8.57;;;4.63;;
703;SDS011;335;48.694;9.120;2022-10-29T03:07:36;9.17;;;4.80;;
703;SDS011;335;48.694;9.120;2022-10-29T03:10:05;6.13;;;4.53;;
703;SDS011;335;48.694;9.120;2022-10-29T03:12:31;10.63;;;4.37;;
703;SDS011;335;48.694;9.120;2022-10-29T03:14:57;5.87;;;4.63;;
703;SDS011;335;48.694;9.120;2022-10-29T03:17:22;13.20;;;4.73;;
703;SDS011;335;48.694;9.120;2022-10-29T03:19:48;5.73;;;4.27;;
703;SDS011;335;48.694;9.120;2022-10-29T03:22:13;7.10;;;4.33;;
703;SDS011;335;48.694;9.120;2022-10-29T03:24:38;5.97;;;4.60;;
703;SDS011;335;48.694;9.120;2022-10-29T03:27:04;6.07;;;5.30;;
703;SDS011;335;48.694;9.120;2022-10-29T03:29:29;5.20;;;4.07;;
703;SDS011;335;48.694;9.120;2022-10-29T03:31:54;8.73;;;5.47;;
703;SDS011;335;48.694;9.120;2022-10-29T03:34:20;9.20;;;4.80;;
703;SDS011;335;48.694;9.120;2022-10-29T03:36:45;8.83;;;4.20;;
703;SDS011;335;48.694;9.120;2022-10-29T03:39:10;8.40;;;4.80;;
703;SDS011;335;48.694;9.120;2022-10-29T03:41:36;4.43;;;3.60;;
703;SDS011;335;48.694;9.120;2022-10-29T03:44:01;9.03;;;5.27;;
703;SDS011;335;48.694;9.120;2022-10-29T03:46:26;5.13;;;4.03;;
703;SDS011;335;48.694;9.120;2022-10-29T03:48:51;7.10;;;4.03;;
703;SDS011;335;48.694;9.120;2022-10-29T03:51:17;5.10;;;3.70;;
703;SDS011;335;48.694;9.120;2022-10-29T03:53:42;6.33;;;3.80;;
703;SDS011;335;48.694;9.120;2022-10-29T03:56:08;4.13;;;3.73;;
703;SDS011;335;48.694;9.120;2022-10-29T03:58:33;6.53;;;4.23;;
703;SDS011;335;48.694;9.120;2022-10-29T04:00:59;6.50;;;4.53;;
703;SDS011;335;48.694;9.120;2022-10-29T04:03:25;6.23;;;4.80;;
703;SDS011;335;48.694;9.120;2022-10-29T04:05:52;5.23;;;4.47;;
703;SDS011;335;48.694;9.120;2022-10-29T04:08:17;6.27;;;4.23;;
703;SDS011;335;48.694;9.120;2022-10-29T04:10:44;6.67;;;4.80;;
703;SDS011;335;48.694;9.120;2022-10-29T04:13:10;9.10;;;4.80;;
703;SDS011;335;48.694;9.120;2022-10-29T04:15:36;6.20;;;4.47;;
703;SDS011;335;48.694;9.120;2022-10-29T04:18:01;6.40;;;4.50;;
703;SDS011;335;48.694;9.120;2022-10-29T04:20:27;5.47;;;4.30;;
703;SDS011;335;48.694;9.120;2022-10-29T04:22:52;7.33;;;3.93;;
703;SDS011;335;48.694;9.120;2022-10-29T04:25:17;9.03;;;4.90;;
703;SDS011;335;48.694;9.120;2022-10-29T04:27:42;4.97;;;4.47;;
703;SDS011;335;48.694;9.120;2022-10-29T04:30:08;5.73;;;4.50;;
703;SDS011;335;48.694;9.120;2022-10-29T04:32:33;6.33;;;4.47;;
703;SDS011;335;48.694;9.120;2022-10-29T04:34:59;13.40;;;5.60;;
703;SDS011;335;48.694;9.120;2022-10-29T04:37:26;6.43;;;4.43;;
703;SDS011;335;48.694;9.120;2022-10-29T04:39:53;5.67;;;4.40;;
703;SDS011;335;48.694;9.120;2022-10-29T04:42:18;6.53;;;4.27;;
703;SDS011;335;48.694;9.120;2022-10-29T04:44:43;6.33;;;4.13;;
703;SDS011;335;48.694;9.120;2022-10-29T04:47:09;6.67;;;3.77;;
703;SDS011;335;48.694;9.120;2022-10-29T04:49:34;10.13;;;4.60;;
703;SDS011;335;48.694;9.120;2022-10-29T04:51:59;5.10;;;4.57;;
703;SDS011;335;48.694;9.120;2022-10-29T04:54:24;5.70;;;4.53;;
703;SDS011;335;48.694;9.120;2022-10-29T04:56:50;8.90;;;4.43;;
703;SDS011;335;48.694;9.120;2022-10-29T04:59:15;6.33;;;4.90;;
703;SDS011;335;48.694;9.120;2022-10-29T05:01:40;8.03;;;5.00;;
703;SDS011;335;48.694;9.120;2022-10-29T05:04:06;9.70;;;5.17;;
703;SDS011;335;48.694;9.120;2022-10-29T05:06:31;5.30;;;4.47;;
703;SDS011;335;48.694;9.120;2022-10-29T05:08:56;6.03;;;5.03;;
703;SDS011;335;48.694;9.120;2022-10-29T05:11:22;7.77;;;5.43;;
703;SDS011;335;48.694;9.120;2022-10-29T05:13:47;5.57;;;5.03;;
703;SDS011;335;48.694;9.120;2022-10-29T05:16:12;7.00;;;4.77;;
703;SDS011;335;48.694;9.120;2022-10-29T05:18:38;9.97;;;5.03;;
703;SDS011;335;48.694;9.120;2022-10-29T05:21:03;7.27;;;5.20;;
703;SDS011;335;48.694;9.120;2022-10-29T05:23:29;8.17;;;4.90;;
703;SDS011;335;48.694;9.120;2022-10-29T05:25:54;4.93;;;4.40;;
703;SDS011;335;48.694;9.120;2022-10-29T05:28:20;9.60;;;4.93;;
703;SDS011;335;48.694;9.120;2022-10-29T05:30:47;5.13;;;4.43;;
703;SDS011;335;48.694;9.120;2022-10-29T05:33:14;7.10;;;4.60;;
703;SDS011;335;48.694;9.120;2022-10-29T05:35:41;6.77;;;4.80;;
703;SDS011;335;48.694;9.120;2022-10-29T05:38:08;7.20;;;4.90;;
703;SDS011;335;48.694;9.120;2022-10-29T05:40:33;8.73;;;4.50;;
703;SDS011;335;48.694;9.120;2022-10-29T05:42:59;6.23;;;5.10;;
703;SDS011;335;48.694;9.120;2022-10-29T05:45:24;5.20;;;4.67;;
703;SDS011;335;48.694;9.120;2022-10-29T05:47:59;6.33;;;4.30;;
703;SDS011;335;48.694;9.120;2022-10-29T05:50:26;5.30;;;4.80;;
703;SDS011;335;48.694;9.120;2022-10-29T05:52:55;9.60;;;5.10;;
703;SDS011;335;48.694;9.120;2022-10-29T05:55:25;6.03;;;4.73;;
703;SDS011;335;48.694;9.120;2022-10-29T05:57:57;8.73;;;4.50;;
703;SDS011;335;48.694;9.120;2022-10-29T06:00:24;7.20;;;4.57;;
703;SDS011;335;48.694;9.120;2022-10-29T06:02:51;8.20;;;5.03;;
703;SDS011;335;48.694;9.120;2022-10-29T06:05:17;12.00;;;5.13;;
703;SDS011;335;48.694;9.120;2022-10-29T06:07:42;9.13;;;5.73;;
703;SDS011;335;48.694;9.120;2022-10-29T06:10:07;6.80;;;5.03;;
703;SDS011;335;48.694;9.120;2022-10-29T06:12:33;5.63;;;4.17;;
703;SDS011;335;48.694;9.120;2022-10-29T06:15:01;8.00;;;4.87;;
703;SDS011;335;48.694;9.120;2022-10-29T06:17:27;8.70;;;5.10;;
703;SDS011;335;48.694;9.120;2022-10-29T06:19:53;9.93;;;5.17;;
703;SDS011;335;48.694;9.120;2022-10-29T06:22:18;6.80;;;4.77;;
703;SDS011;335;48.694;9.120;2022-10-29T06:24:43;12.60;;;5.77;;
703;SDS011;335;48.694;9.120;2022-10-29T06:27:09;9.37;;;5.37;;
703;SDS011;335;48.694;9.120;2022-10-29T06:29:34;7.10;;;4.70;;
703;SDS011;335;48.694;9.120;2022-10-29T06:31:59;6.13;;;5.03;;
703;SDS011;335;48.694;9.120;2022-10-29T06:34:25;7.23;;;5.50;;
703;SDS011;335;48.694;9.120;2022-10-29T06:36:50;7.67;;;5.50;;
703;SDS011;335;48.694;9.120;2022-10-29T06:39:15;9.57;;;4.67;;
703;SDS011;335;48.694;9.120;2022-10-29T06:41:40;8.50;;;5.40;;
703;SDS011;335;48.694;9.120;2022-10-29T06:44:06;7.17;;;5.40;;
703;SDS011;335;48.694;9.120;2022-10-29T06:46:31;7.30;;;5.10;;
703;SDS011;335;48.694;9.120;2022-10-29T06:48:58;7.43;;;5.80;;
703;SDS011;335;48.694;9.120;2022-10-29T06:51:25;10.80;;;5.37;;
703;SDS011;335;48.694;9.120;2022-10-29T06:53:50;8.03;;;5.93;;
703;SDS011;335;48.694;9.120;2022-10-29T06:56:15;7.13;;;5.10;;
703;SDS011;335;48.694;9.120;2022-10-29T06:58:41;7.93;;;5.20;;
703;SDS011;335;48.694;9.120;2022-10-29T07:01:06;5.73;;;4.10;;
703;SDS011;335;48.694;9.120;2022-10-29T07:03:31;7.67;;;4.50;;
703;SDS011;335;48.694;9.120;2022-10-29T07:05:57;5.93;;;5.00;;
703;SDS011;335;48.694;9.120;2022-10-29T07:08:23;7.27;;;5.20;;
703;SDS011;335;48.694;9.120;2022-10-29T07:10:49;10.23;;;5.30;;
703;SDS011;335;48.694;9.120;2022-10-29T07:13:15;8.20;;;4.90;;
703;SDS011;335;48.694;9.120;2022-10-29T07:15:41;7.07;;;5.03;;
703;SDS011;335;48.694;9.120;2022-10-29T07:18:06;5.97;;;4.70;;
703;SDS011;335;48.694;9.120;2022-10-29T07:20:36;8.80;;;5.50;;
703;SDS011;335;48.694;9.120;2022-10-29T07:23:06;6.50;;;4.90;;
703;SDS011;335;48.694;9.120;2022-10-29T07:25:32;9.63;;;5.00;;
703;SDS011;335;48.694;9.120;2022-10-29T07:28:17;7.70;;;5.20;;
703;SDS011;335;48.694;9.120;2022-10-29T07:30:48;7.73;;;5.40;;
703;SDS011;335;48.694;9.120;2022-10-29T07:33:14;9.43;;;4.73;;
703;SDS011;335;48.694;9.120;2022-10-29T07:35:40;5.60;;;4.53;;
703;SDS011;335;48.694;9.120;2022-10-29T07:38:05;7.10;;;4.60;;
703;SDS011;335;48.694;9.120;2022-10-29T07:40:31;6.40;;;4.20;;
703;SDS011;335;48.694;9.120;2022-10-29T07:42:57;6.40;;;3.90;;
703;SDS011;335;48.694;9.120;2022-10-29T07:45:22;5.10;;;4.20;;
703;SDS011;335;48.694;9.120;2022-10-29T07:47:48;7.37;;;5.40;;
703;SDS011;335;48.694;9.120;2022-10-29T07:50:13;6.43;;;4.10;;
703;SDS011;335;48.694;9.120;2022-10-29T07:52:39;7.93;;;5.10;;
703;SDS011;335;48.694;9.120;2022-10-29T07:55:05;7.17;;;5.07;;
703;SDS011;335;48.694;9.120;2022-10-29T07:57:31;7.03;;;5.10;;
703;SDS011;335;48.694;9.120;2022-10-29T07:59:56;4.90;;;4.50;;
703;SDS011;335;48.694;9.120;2022-10-29T08:02:22;6.13;;;4.87;;
703;SDS011;335;48.694;9.120;2022-10-29T08:04:47;6.17;;;4.83;;
703;SDS011;335;48.694;9.120;2022-10-29T08:07:12;6.63;;;4.40;;
703;SDS011;335;48.694;9.120;2022-10-29T08:09:38;7.20;;;4.10;;
703;SDS011;335;48.694;9.120;2022-10-29T08:12:04;5.90;;;4.07;;
703;SDS011;335;48.694;9.120;2022-10-29T08:14:31;7.10;;;4.20;;
703;SDS011;335;48.694;9.120;2022-10-29T08:16:56;9.07;;;4.43;;
703;SDS011;335;48.694;9.120;2022-10-29T08:19:21;7.00;;;4.60;;
703;SDS011;335;48.694;9.120;2022-10-29T08:21:47;5.37;;;4.20;;
703;SDS011;335;48.694;9.120;2022-10-29T08:24:12;8.37;;;4.70;;
703;SDS011;335;48.694;9.120;2022-10-29T08:26:38;8.60;;;3.57;;
703;SDS011;335;48.694;9.120;2022-10-29T08:29:03;4.47;;;4.00;;
703;SDS011;335;48.694;9.120;2022-10-29T08:31:28;4.87;;;3.33;;
703;SDS011;335;48.694;9.120;2022-10-29T08:33:54;3.27;;;2.90;;
703;SDS011;335;48.694;9.120;2022-10-29T08:36:19;5.30;;;3.07;;
703;SDS011;335;48.694;9.120;2022-10-29T08:38:45;4.00;;;3.13;;
703;SDS011;335;48.694;9.120;2022-10-29T08:49:30;9.97;;;3.40;;
703;SDS011;335;48.694;9.120;2022-10-29T08:52:03;5.40;;;3.60;;
703;SDS011;335;48.694;9.120;2022-10-29T08:54:32;4.00;;;3.60;;
703;SDS011;335;48.694;9.120;2022-10-29T08:57:00;6.27;;;3.50;;
703;SDS011;335;48.694;9.120;2022-10-29T08:59:34;4.73;;;3.00;;
703;SDS011;335;48.694;9.120;2022-10-29T09:02:01;5.40;;;3.33;;
703;SDS011;335;48.694;9.120;2022-10-29T09:04:33;8.10;;;4.50;;
703;SDS011;335;48.694;9.120;2022-10-29T09:07:19;4.40;;;3.53;;
703;SDS011;335;48.694;9.120;2022-10-29T09:15:13;6.00;;;2.70;;
703;SDS011;335;48.694;9.120;2022-10-29T09:20:48;6.17;;;3.10;;
703;SDS011;335;48.694;9.120;2022-10-29T09:23:42;3.40;;;3.10;;
703;SDS011;335;48.694;9.120;2022-10-29T09:26:27;4.87;;;3.07;;
703;SDS011;335;48.694;9.120;2022-10-29T09:29:04;4.13;;;3.50;;
703;SDS011;335;48.694;9.120;2022-10-29T09:31:40;7.50;;;2.90;;
703;SDS011;335;48.694;9.120;2022-10-29T09:34:10;5.47;;;3.20;;
703;SDS011;335;48.694;9.120;2022-10-29T09:36:37;5.60;;;3.23;;
703;SDS011;335;48.694;9.120;2022-10-29T09:39:08;3.03;;;2.80;;
703;SDS011;335;48.694;9.120;2022-10-29T09:41:36;3.97;;;3.00;;
703;SDS011;335;48.694;9.120;2022-10-29T09:46:46;6.10;;;3.23;;
703;SDS011;335;48.694;9.120;2022-10-29T09:49:55;6.17;;;3.50;;
703;SDS011;335;48.694;9.120;2022-10-29T09:52:35;6.20;;;3.40;;
703;SDS011;335;48.694;9.120;2022-10-29T09:55:02;3.30;;;3.00;;
703;SDS011;335;48.694;9.120;2022-10-29T09:57:29;4.80;;;3.03;;
703;SDS011;335;48.694;9.120;2022-10-29T09:59:56;3.00;;;2.80;;
703;SDS011;335;48.694;9.120;2022-10-29T10:02:28;3.17;;;2.87;;
703;SDS011;335;48.694;9.120;2022-10-29T10:07:37;4.97;;;3.13;;
703;SDS011;335;48.694;9.120;2022-10-29T10:10:04;3.57;;;3.13;;
703;SDS011;335;48.694;9.120;2022-10-29T10:15:03;3.80;;;3.00;;
703;SDS011;335;48.694;9.120;2022-10-29T10:17:38;3.90;;;2.60;;
703;SDS011;335;48.694;9.120;2022-10-29T10:20:38;7.10;;;3.20;;
703;SDS011;335;48.694;9.120;2022-10-29T10:23:22;5.63;;;3.40;;
703;SDS011;335;48.694;9.120;2022-10-29T10:25:50;5.70;;;3.30;;
703;SDS011;335;48.694;9.120;2022-10-29T10:28:17;4.03;;;3.33;;
703;SDS011;335;48.694;9.120;2022-10-29T10:30:45;6.60;;;2.70;;
703;SDS011;335;48.694;9.120;2022-10-29T10:33:31;6.03;;;2.93;;
703;SDS011;335;48.694;9.120;2022-10-29T10:36:04;4.37;;;3.20;;
703;SDS011;335;48.694;9.120;2022-10-29T10:38:44;7.63;;;3.67;;
703;SDS011;335;48.694;9.120;2022-10-29T10:41:12;5.57;;;3.20;;
703;SDS011;335;48.694;9.120;2022-10-29T10:43:42;4.30;;;2.60;;
703;SDS011;335;48.694;9.120;2022-10-29T10:46:18;8.30;;;3.10;;
703;SDS011;335;48.694;9.120;2022-10-29T10:51:54;8.30;;;3.20;;
703;SDS011;335;48.694;9.120;2022-10-29T10:59:45;7.40;;;3.20;;
703;SDS011;335;48.694;9.120;2022-10-29T11:02:21;4.90;;;2.83;;
703;SDS011;335;48.694;9.120;2022-10-29T11:04:53;3.63;;;2.30;;
703;SDS011;335;48.694;9.120;2022-10-29T11:07:22;7.27;;;3.37;;
703;SDS011;335;48.694;9.120;2022-10-29T11:09:49;4.83;;;2.90;;
703;SDS011;335;48.694;9.120;2022-10-29T11:12:39;7.17;;;2.90;;
703;SDS011;335;48.694;9.120;2022-10-29T11:15:12;7.70;;;3.63;;
703;SDS011;335;48.694;9.120;2022-10-29T11:17:45;4.27;;;2.80;;
703;SDS011;335;48.694;9.120;2022-10-29T11:20:26;4.10;;;3.10;;
703;SDS011;335;48.694;9.120;2022-10-29T11:25:40;6.87;;;2.60;;
703;SDS011;335;48.694;9.120;2022-10-29T11:28:14;4.77;;;2.43;;
703;SDS011;335;48.694;9.120;2022-10-29T11:30:47;6.60;;;2.90;;
703;SDS011;335;48.694;9.120;2022-10-29T11:33:19;4.23;;;2.67;;
703;SDS011;335;48.694;9.120;2022-10-29T11:35:52;10.40;;;3.40;;
703;SDS011;335;48.694;9.120;2022-10-29T11:38:32;6.80;;;3.00;;
703;SDS011;335;48.694;9.120;2022-10-29T11:41:06;4.40;;;2.67;;
703;SDS011;335;48.694;9.120;2022-10-29T11:43:34;6.87;;;3.00;;
703;SDS011;335;48.694;9.120;2022-10-29T11:51:18;8.17;;;2.57;;
703;SDS011;335;48.694;9.120;2022-10-29T11:56:32;5.37;;;3.30;;
703;SDS011;335;48.694;9.120;2022-10-29T11:59:20;6.47;;;2.93;;
703;SDS011;335;48.694;9.120;2022-10-29T12:01:56;6.27;;;3.27;;
703;SDS011;335;48.694;9.120;2022-10-29T12:04:30;4.50;;;3.10;;
703;SDS011;335;48.694;9.120;2022-10-29T12:15:09;5.77;;;3.70;;
703;SDS011;335;48.694;9.120;2022-10-29T12:20:43;5.13;;;3.70;;
703;SDS011;335;48.694;9.120;2022-10-29T12:23:19;7.00;;;4.37;;
703;SDS011;335;48.694;9.120;2022-10-29T12:32:14;8.23;;;4.40;;
703;SDS011;335;48.694;9.120;2022-10-29T12:34:53;5.27;;;3.70;;
703;SDS011;335;48.694;9.120;2022-10-29T12:39:57;6.37;;;3.87;;
703;SDS011;335;48.694;9.120;2022-10-29T12:42:25;3.30;;;3.10;;
703;SDS011;335;48.694;9.120;2022-10-29T12:48:15;5.43;;;2.50;;
703;SDS011;335;48.694;9.120;2022-10-29T12:50:59;3.97;;;2.43;;
703;SDS011;335;48.694;9.120;2022-10-29T12:55:54;7.40;;;3.17;;
703;SDS011;335;48.694;9.120;2022-10-29T13:09:18;6.23;;;3.73;;
703;SDS011;335;48.694;9.120;2022-10-29T13:11:57;7.77;;;3.03;;
703;SDS011;335;48.694;9.120;2022-10-29T13:14:26;5.13;;;3.20;;
703;SDS011;335;48.694;9.120;2022-10-29T13:16:51;5.30;;;3.30;;
703;SDS011;335;48.694;9.120;2022-10-29T13:19:20;7.80;;;3.23;;
703;SDS011;335;48.694;9.120;2022-10-29T13:21:54;3.87;;;2.93;;
703;SDS011;335;48.694;9.120;2022-10-29T13:24:20;8.30;;;2.83;;
703;SDS011;335;48.694;9.120;2022-10-29T13:32:29;2.93;;;2.40;;
703;SDS011;335;48.694;9.120;2022-10-29T13:34:59;5.30;;;2.80;;
703;SDS011;335;48.694;9.120;2022-10-29T13:42:56;6.27;;;3.57;;
703;SDS011;335;48.694;9.120;2022-10-29T13:45:24;6.40;;;3.13;;
703;SDS011;335;48.694;9.120;2022-10-29T13:47:50;8.53;;;3.20;;
703;SDS011;335;48.694;9.120;2022-10-29T13:50:16;8.07;;;3.70;;
703;SDS011;335;48.694;9.120;2022-10-29T13:52:42;8.80;;;4.77;;
703;SDS011;335;48.694;9.120;2022-10-29T13:55:09;7.20;;;3.90;;
703;SDS011;335;48.694;9.120;2022-10-29T14:00:27;4.97;;;4.47;;
703;SDS011;335;48.694;9.120;2022-10-29T14:05:37;6.27;;;4.00;;
703;SDS011;335;48.694;9.120;2022-10-29T14:08:16;7.13;;;3.70;;
703;SDS011;335;48.694;9.120;2022-10-29T14:10:46;7.73;;;4.20;;
703;SDS011;335;48.694;9.120;2022-10-29T14:16:07;5.27;;;3.20;;
703;SDS011;335;48.694;9.120;2022-10-29T14:18:30;6.57;;;3.80;;
703;SDS011;335;48.694;9.120;2022-10-29T14:20:57;3.37;;;2.90;;
703;SDS011;335;48.694;9.120;2022-10-29T14:23:27;4.20;;;3.33;;
703;SDS011;335;48.694;9.120;2022-10-29T14:25:57;4.40;;;3.40;;
703;SDS011;335;48.694;9.120;2022-10-29T14:28:31;6.83;;;3.63;;
703;SDS011;335;48.694;9.120;2022-10-29T14:33:32;3.43;;;3.10;;
703;SDS011;335;48.694;9.120;2022-10-29T14:39:02;4.40;;;3.10;;
703;SDS011;335;48.694;9.120;2022-10-29T14:41:32;9.40;;;3.67;;
703;SDS011;335;48.694;9.120;2022-10-29T14:46:26;5.70;;;2.90;;
703;SDS011;335;48.694;9.120;2022-10-29T14:48:58;6.53;;;4.10;;
703;SDS011;335;48.694;9.120;2022-10-29T14:51:26;10.07;;;4.70;;
703;SDS011;335;48.694;9.120;2022-10-29T14:53:52;9.67;;;4.30;;
703;SDS011;335;48.694;9.120;2022-10-29T14:56:20;5.40;;;3.27;;
703;SDS011;335;48.694;9.120;2022-10-29T14:59:14;5.43;;;3.73;;
703;SDS011;335;48.694;9.120;2022-10-29T15:02:01;6.13;;;3.80;;
703;SDS011;335;48.694;9.120;2022-10-29T15:04:29;7.03;;;4.07;;
703;SDS011;335;48.694;9.120;2022-10-29T15:07:41;8.03;;;3.80;;
703;SDS011;335;48.694;9.120;2022-10-29T15:09:44;6.87;;;4.23;;
703;SDS011;335;48.694;9.120;2022-10-29T15:15:16;8.30;;;4.30;;
703;SDS011;335;48.694;9.120;2022-10-29T15:18:13;7.43;;;4.17;;
703;SDS011;335;48.694;9.120;2022-10-29T15:26:01;4.60;;;3.80;;
703;SDS011;335;48.694;9.120;2022-10-29T15:28:36;6.30;;;3.67;;
703;SDS011;335;48.694;9.120;2022-10-29T15:31:03;5.90;;;3.37;;
703;SDS011;335;48.694;9.120;2022-10-29T15:33:29;5.63;;;4.23;;
703;SDS011;335;48.694;9.120;2022-10-29T15:36:02;9.10;;;4.73;;
703;SDS011;335;48.694;9.120;2022-10-29T15:43:32;12.83;;;4.97;;
703;SDS011;335;48.694;9.120;2022-10-29T15:46:02;14.37;;;4.70;;
703;SDS011;335;48.694;9.120;2022-10-29T15:50:59;5.33;;;4.20;;
703;SDS011;335;48.694;9.120;2022-10-29T15:53:24;9.30;;;4.27;;
703;SDS011;335;48.694;9.120;2022-10-29T15:55:51;8.60;;;4.60;;
703;SDS011;335;48.694;9.120;2022-10-29T15:58:18;6.53;;;4.63;;
703;SDS011;335;48.694;9.120;2022-10-29T16:00:49;8.20;;;5.07;;
703;SDS011;335;48.694;9.120;2022-10-29T16:03:25;8.67;;;5.20;;
703;SDS011;335;48.694;9.120;2022-10-29T16:06:06;7.10;;;4.33;;
703;SDS011;335;48.694;9.120;2022-10-29T16:08:35;6.43;;;4.07;;
703;SDS011;335;48.694;9.120;2022-10-29T16:11:07;5.83;;;4.07;;
703;SDS011;335;48.694;9.120;2022-10-29T16:13:36;6.27;;;5.10;;
703;SDS011;335;48.694;9.120;2022-10-29T16:16:02;6.57;;;4.07;;
703;SDS011;335;48.694;9.120;2022-10-29T16:18:28;10.23;;;4.77;;
703;SDS011;335;48.694;9.120;2022-10-29T16:20:57;5.90;;;4.43;;
703;SDS011;335;48.694;9.120;2022-10-29T16:23:25;7.37;;;4.90;;
703;SDS011;335;48.694;9.120;2022-10-29T16:25:50;8.40;;;4.57;;
703;SDS011;335;48.694;9.120;2022-10-29T16:28:16;7.73;;;5.20;;
703;SDS011;335;48.694;9.120;2022-10-29T16:30:41;6.50;;;5.10;;
703;SDS011;335;48.694;9.120;2022-10-29T16:33:09;10.13;;;5.30;;
703;SDS011;335;48.694;9.120;2022-10-29T16:35:35;9.13;;;5.73;;
703;SDS011;335;48.694;9.120;2022-10-29T16:38:04;7.83;;;6.73;;
703;SDS011;335;48.694;9.120;2022-10-29T16:40:30;11.30;;;8.43;;
703;SDS011;335;48.694;9.120;2022-10-29T16:42:56;10.57;;;8.63;;
703;SDS011;335;48.694;9.120;2022-10-29T16:45:26;14.63;;;10.77;;
703;SDS011;335;48.694;9.120;2022-10-29T16:47:54;24.00;;;19.80;;
703;SDS011;335;48.694;9.120;2022-10-29T16:50:30;23.00;;;18.60;;
703;SDS011;335;48.694;9.120;2022-10-29T16:53:01;20.60;;;17.37;;
703;SDS011;335;48.694;9.120;2022-10-29T16:55:28;21.07;;;15.20;;
703;SDS011;335;48.694;9.120;2022-10-29T16:57:54;20.23;;;16.70;;
703;SDS011;335;48.694;9.120;2022-10-29T17:00:20;18.67;;;16.10;;
703;SDS011;335;48.694;9.120;2022-10-29T17:02:46;19.03;;;16.83;;
703;SDS011;335;48.694;9.120;2022-10-29T17:05:11;19.43;;;15.63;;
703;SDS011;335;48.694;9.120;2022-10-29T17:07:40;17.73;;;13.50;;
703;SDS011;335;48.694;9.120;2022-10-29T17:10:06;18.03;;;13.53;;
703;SDS011;335;48.694;9.120;2022-10-29T17:12:37;15.30;;;10.60;;
703;SDS011;335;48.694;9.120;2022-10-29T17:15:19;20.20;;;12.40;;
703;SDS011;335;48.694;9.120;2022-10-29T17:17:50;14.47;;;12.53;;
703;SDS011;335;48.694;9.120;2022-10-29T17:20:16;16.50;;;11.53;;
703;SDS011;335;48.694;9.120;2022-10-29T17:22:42;11.70;;;10.10;;
703;SDS011;335;48.694;9.120;2022-10-29T17:25:07;19.30;;;12.10;;
703;SDS011;335;48.694;9.120;2022-10-29T17:27:36;13.67;;;11.40;;
703;SDS011;335;48.694;9.120;2022-10-29T17:30:06;14.67;;;11.00;;
703;SDS011;335;48.694;9.120;2022-10-29T17:32:32;18.13;;;10.87;;
703;SDS011;335;48.694;9.120;2022-10-29T17:34:57;15.23;;;13.47;;
703;SDS011;335;48.694;9.120;2022-10-29T17:37:23;15.70;;;12.53;;
703;SDS011;335;48.694;9.120;2022-10-29T17:39:49;21.90;;;12.97;;
703;SDS011;335;48.694;9.120;2022-10-29T17:42:14;21.27;;;13.53;;
703;SDS011;335;48.694;9.120;2022-10-29T17:44:40;14.40;;;11.40;;
703;SDS011;335;48.694;9.120;2022-10-29T17:47:05;12.93;;;9.83;;
703;SDS011;335;48.694;9.120;2022-10-29T17:49:30;10.90;;;9.80;;
703;SDS011;335;48.694;9.120;2022-10-29T17:51:56;12.17;;;7.30;;
703;SDS011;335;48.694;9.120;2022-10-29T17:54:21;11.57;;;7.80;;
703;SDS011;335;48.694;9.120;2022-10-29T17:56:46;10.37;;;7.47;;
703;SDS011;335;48.694;9.120;2022-10-29T17:59:13;11.83;;;6.93;;
703;SDS011;335;48.694;9.120;2022-10-29T18:01:38;10.33;;;6.60;;
703;SDS011;335;48.694;9.120;2022-10-29T18:04:04;10.20;;;6.60;;
703;SDS011;335;48.694;9.120;2022-10-29T18:06:30;9.63;;;8.50;;
703;SDS011;335;48.694;9.120;2022-10-29T18:08:55;10.43;;;8.73;;
703;SDS011;335;48.694;9.120;2022-10-29T18:11:22;10.47;;;8.47;;
703;SDS011;335;48.694;9.120;2022-10-29T18:13:48;10.90;;;7.07;;
703;SDS011;335;48.694;9.120;2022-10-29T18:16:15;10.43;;;5.70;;
703;SDS011;335;48.694;9.120;2022-10-29T18:18:44;9.67;;;5.47;;
703;SDS011;335;48.694;9.120;2022-10-29T18:21:11;9.00;;;6.03;;
703;SDS011;335;48.694;9.120;2022-10-29T18:23:38;6.27;;;5.00;;
703;SDS011;335;48.694;9.120;2022-10-29T18:26:05;6.47;;;5.77;;
703;SDS011;335;48.694;9.120;2022-10-29T18:28:31;6.80;;;5.67;;
703;SDS011;335;48.694;9.120;2022-10-29T18:30:59;12.53;;;8.20;;
703;SDS011;335;48.694;9.120;2022-10-29T18:33:25;9.70;;;6.60;;